createdAt,value
2022-08-12T00:01:26.975Z,23.27
2022-08-12T00:03:22.728Z,23.45
2022-08-12T00:05:22.721Z,23.36
2022-08-12T00:07:22.744Z,23.36
2022-08-12T00:09:26.251Z,23.36
2022-08-12T00:11:22.865Z,23.37
2022-08-12T00:13:22.717Z,23.39
2022-08-12T00:15:22.723Z,23.28
2022-08-12T00:17:23.325Z,23.43
2022-08-12T00:19:22.787Z,23.31
2022-08-12T00:21:22.758Z,23.11
2022-08-12T00:23:22.769Z,22.92
2022-08-12T00:25:50.830Z,23.10
2022-08-12T00:27:26.211Z,23.03
2022-08-12T00:29:22.890Z,23.11
2022-08-12T00:31:22.764Z,22.96
2022-08-12T00:33:22.882Z,22.80
2022-08-12T00:35:22.830Z,23.21
2022-08-12T00:37:22.855Z,23.34
2022-08-12T00:39:22.978Z,23.25
2022-08-12T00:41:22.732Z,23.38
2022-08-12T00:43:22.772Z,23.33
2022-08-12T00:45:22.988Z,23.36
2022-08-12T00:47:25.707Z,23.26
2022-08-12T00:49:22.934Z,23.25
2022-08-12T00:51:22.811Z,23.34
2022-08-12T00:53:22.887Z,23.25
2022-08-12T00:55:22.914Z,23.30
2022-08-12T00:57:22.906Z,23.25
2022-08-12T00:59:22.892Z,23.31
2022-08-12T01:01:22.943Z,23.25
2022-08-12T01:03:22.735Z,23.34
2022-08-12T01:05:22.771Z,23.25
2022-08-12T01:07:22.800Z,23.20
2022-08-12T01:09:22.810Z,23.17
2022-08-12T01:11:22.829Z,23.09
2022-08-12T01:13:22.809Z,22.96
2022-08-12T01:15:22.785Z,22.96
2022-08-12T01:17:22.833Z,22.96
2022-08-12T01:19:22.774Z,23.08
2022-08-12T01:21:22.942Z,22.97
2022-08-12T01:23:22.795Z,22.96
2022-08-12T01:25:22.963Z,23.05
2022-08-12T01:27:22.838Z,23.08
2022-08-12T01:29:22.858Z,23.15
2022-08-12T01:31:22.843Z,23.20
2022-08-12T01:33:22.798Z,23.11
2022-08-12T01:35:22.888Z,23.19
2022-08-12T01:37:22.961Z,23.24
2022-08-12T01:39:22.917Z,23.24
2022-08-12T01:41:22.805Z,23.13
2022-08-12T01:43:22.976Z,23.13
2022-08-12T01:45:22.789Z,23.25
2022-08-12T01:47:22.997Z,23.25
2022-08-12T01:49:22.993Z,23.09
2022-08-12T01:51:24.492Z,23.13
2022-08-12T01:53:22.817Z,23.15
2022-08-12T01:55:22.882Z,23.13
2022-08-12T01:57:58.043Z,23.16
2022-08-12T01:59:22.838Z,23.22
2022-08-12T02:01:22.906Z,23.17
2022-08-12T02:03:22.834Z,23.01
2022-08-12T02:05:22.783Z,22.85
2022-08-12T02:07:22.857Z,22.87
2022-08-12T02:09:22.890Z,22.80
2022-08-12T02:11:22.853Z,22.85
2022-08-12T02:13:48.070Z,22.80
2022-08-12T02:15:22.995Z,22.96
2022-08-12T02:17:54.493Z,23.12
2022-08-12T02:19:23.449Z,23.16
2022-08-12T02:21:23.010Z,23.15
2022-08-12T02:23:23.011Z,23.11
2022-08-12T02:25:22.926Z,23.08
2022-08-12T02:27:22.988Z,23.12
2022-08-12T02:29:22.880Z,23.10
2022-08-12T02:31:22.970Z,23.09
2022-08-12T02:33:22.876Z,23.07
2022-08-12T02:35:23.023Z,23.04
2022-08-12T02:37:23.018Z,23.12
2022-08-12T02:39:22.907Z,22.97
2022-08-12T02:41:23.046Z,23.10
2022-08-12T02:43:22.960Z,23.09
2022-08-12T02:45:22.861Z,23.15
2022-08-12T02:47:58.930Z,23.10
2022-08-12T02:49:23.083Z,22.97
2022-08-12T02:51:23.006Z,23.11
2022-08-12T02:53:22.958Z,23.17
2022-08-12T02:55:33.927Z,22.78
2022-08-12T02:57:23.039Z,22.83
2022-08-12T02:59:22.986Z,22.88
2022-08-12T03:01:22.956Z,22.78
2022-08-12T03:03:23.074Z,22.83
2022-08-12T03:05:22.881Z,22.83
2022-08-12T03:07:23.075Z,22.78
2022-08-12T03:09:22.950Z,23.06
2022-08-12T03:11:22.944Z,23.16
2022-08-12T03:13:23.066Z,23.13
2022-08-12T03:15:23.153Z,23.13
2022-08-12T03:17:23.075Z,23.19
2022-08-12T03:19:23.064Z,23.10
2022-08-12T03:21:57.855Z,23.05
2022-08-12T03:23:30.206Z,23.01
2022-08-12T03:25:23.094Z,23.10
2022-08-12T03:27:23.095Z,23.03
2022-08-12T03:29:22.966Z,22.96
2022-08-12T03:31:23.064Z,23.00
2022-08-12T03:33:23.078Z,23.05
2022-08-12T03:35:40.465Z,23.06
2022-08-12T03:37:22.989Z,23.02
2022-08-12T03:39:35.405Z,23.06
2022-08-12T03:41:22.931Z,23.04
2022-08-12T03:43:23.151Z,23.04
2022-08-12T03:45:22.960Z,23.05
2022-08-12T03:47:23.009Z,22.74
2022-08-12T03:49:22.963Z,22.77
2022-08-12T03:51:23.105Z,22.70
2022-08-12T03:53:23.034Z,22.72
2022-08-12T03:55:23.124Z,22.66
2022-08-12T03:57:23.008Z,22.69
2022-08-12T03:59:23.034Z,22.73
2022-08-12T04:01:23.012Z,22.69
2022-08-12T04:03:22.985Z,22.71
2022-08-12T04:05:23.097Z,22.71
2022-08-12T04:07:23.130Z,22.77
2022-08-12T04:09:23.013Z,22.68
2022-08-12T04:11:22.932Z,22.76
2022-08-12T04:13:23.046Z,22.68
2022-08-12T04:15:23.020Z,22.53
2022-08-12T04:17:22.993Z,22.62
2022-08-12T04:19:23.168Z,22.68
2022-08-12T04:21:23.020Z,22.70
2022-08-12T04:23:22.997Z,22.81
2022-08-12T04:25:23.124Z,22.72
2022-08-12T04:27:23.168Z,22.74
2022-08-12T04:29:23.187Z,22.74
2022-08-12T04:31:23.102Z,22.96
2022-08-12T04:33:23.177Z,23.02
2022-08-12T04:35:23.112Z,23.05
2022-08-12T04:37:23.013Z,23.04
2022-08-12T04:39:23.256Z,22.79
2022-08-12T04:41:23.173Z,22.69
2022-08-12T04:43:53.966Z,22.83
2022-08-12T04:45:23.162Z,22.63
2022-08-12T04:47:23.214Z,22.60
2022-08-12T04:49:23.055Z,22.58
2022-08-12T04:51:23.184Z,22.71
2022-08-12T04:53:23.071Z,22.87
2022-08-12T04:55:23.064Z,22.90
2022-08-12T04:57:23.287Z,22.90
2022-08-12T04:59:23.078Z,22.99
2022-08-12T05:01:23.077Z,22.96
2022-08-12T05:03:23.107Z,22.84
2022-08-12T05:05:23.004Z,22.98
2022-08-12T05:07:23.085Z,22.95
2022-08-12T05:09:23.173Z,22.95
2022-08-12T05:11:23.268Z,22.95
2022-08-12T05:13:23.006Z,22.97
2022-08-12T05:15:29.355Z,22.94
2022-08-12T05:17:23.209Z,22.88
2022-08-12T05:19:23.122Z,22.98
2022-08-12T05:21:23.232Z,22.92
2022-08-12T05:23:23.130Z,22.88
2022-08-12T05:25:23.207Z,22.92
2022-08-12T05:27:23.162Z,22.50
2022-08-12T05:30:06.930Z,22.53
2022-08-12T05:31:47.414Z,22.64
2022-08-12T05:33:23.228Z,22.68
2022-08-12T05:35:23.190Z,22.71
2022-08-12T05:37:23.195Z,22.76
2022-08-12T05:39:23.291Z,22.72
2022-08-12T05:41:23.246Z,22.98
2022-08-12T05:43:23.237Z,22.96
2022-08-12T05:45:23.118Z,23.04
2022-08-12T05:47:23.211Z,23.07
2022-08-12T05:49:23.056Z,23.11
2022-08-12T05:51:23.161Z,23.12
2022-08-12T05:53:23.145Z,23.17
2022-08-12T05:55:25.802Z,23.16
2022-08-12T05:57:23.112Z,23.14
2022-08-12T05:59:23.265Z,23.04
2022-08-12T06:02:08.926Z,23.09
2022-08-12T06:03:23.300Z,23.15
2022-08-12T06:05:23.101Z,23.20
2022-08-12T06:07:59.744Z,23.15
2022-08-12T06:09:23.106Z,23.13
2022-08-12T06:11:23.333Z,22.96
2022-08-12T06:13:28.563Z,23.17
2022-08-12T06:15:23.290Z,23.20
2022-08-12T06:17:23.149Z,23.25
2022-08-12T06:19:23.295Z,22.85
2022-08-12T06:21:23.175Z,22.83
2022-08-12T06:23:23.285Z,22.88
2022-08-12T06:25:23.291Z,22.82
2022-08-12T06:27:23.302Z,22.82
2022-08-12T06:30:07.511Z,22.87
2022-08-12T06:31:26.257Z,22.84
2022-08-12T06:33:25.049Z,23.16
2022-08-12T06:35:48.553Z,23.37
2022-08-12T06:37:23.198Z,23.56
2022-08-12T06:39:23.357Z,23.63
2022-08-12T06:41:23.337Z,23.81
2022-08-12T06:43:23.305Z,23.70
2022-08-12T06:45:23.233Z,23.83
2022-08-12T06:47:23.193Z,23.85
2022-08-12T06:49:23.295Z,23.94
2022-08-12T06:51:23.243Z,23.96
2022-08-12T06:53:23.228Z,24.09
2022-08-12T06:55:23.195Z,24.04
2022-08-12T06:58:05.896Z,24.08
2022-08-12T06:59:23.235Z,24.23
2022-08-12T07:01:23.210Z,24.37
2022-08-12T07:03:23.743Z,24.32
2022-08-12T07:05:23.339Z,24.25
2022-08-12T07:07:23.353Z,24.35
2022-08-12T07:10:03.854Z,24.38
2022-08-12T07:11:23.323Z,23.85
2022-08-12T07:13:23.353Z,23.89
2022-08-12T07:15:23.314Z,23.91
2022-08-12T07:17:23.166Z,23.96
2022-08-12T07:19:23.181Z,24.14
2022-08-12T07:21:23.273Z,24.23
2022-08-12T07:23:23.231Z,24.21
2022-08-12T07:25:23.321Z,24.60
2022-08-12T07:27:23.192Z,24.58
2022-08-12T07:29:23.325Z,24.52
2022-08-12T07:31:23.338Z,24.59
2022-08-12T07:33:23.270Z,24.69
2022-08-12T07:35:23.323Z,24.66
2022-08-12T07:37:23.314Z,24.79
2022-08-12T07:39:23.352Z,24.68
2022-08-12T07:41:23.344Z,24.69
2022-08-12T07:43:23.349Z,24.76
2022-08-12T07:45:23.366Z,24.82
2022-08-12T07:47:23.374Z,24.94
2022-08-12T07:49:23.441Z,24.94
2022-08-12T07:51:24.918Z,24.98
2022-08-12T07:53:23.409Z,25.06
2022-08-12T07:55:23.286Z,24.95
2022-08-12T07:57:23.308Z,25.01
2022-08-12T07:59:23.384Z,25.13
2022-08-12T08:01:23.503Z,24.82
2022-08-12T08:03:23.426Z,24.98
2022-08-12T08:05:23.407Z,24.82
2022-08-12T08:07:23.399Z,24.96
2022-08-12T08:09:23.322Z,25.00
2022-08-12T08:11:23.388Z,24.97
2022-08-12T08:13:23.357Z,25.14
2022-08-12T08:15:38.600Z,25.00
2022-08-12T08:17:23.403Z,25.52
2022-08-12T08:19:23.428Z,25.33
2022-08-12T08:21:23.418Z,25.28
2022-08-12T08:23:34.843Z,25.52
2022-08-12T08:25:36.591Z,25.52
2022-08-12T08:27:23.457Z,25.63
2022-08-12T08:29:23.353Z,25.40
2022-08-12T08:31:23.460Z,25.42
2022-08-12T08:34:01.444Z,25.41
2022-08-12T08:35:23.343Z,25.33
2022-08-12T08:37:23.306Z,25.25
2022-08-12T08:39:23.385Z,25.56
2022-08-12T08:42:18.804Z,25.56
2022-08-12T08:43:23.382Z,25.52
2022-08-12T08:45:23.445Z,25.83
2022-08-12T08:47:23.456Z,25.79
2022-08-12T08:49:23.429Z,25.84
2022-08-12T08:51:23.400Z,26.08
2022-08-12T08:53:23.456Z,25.95
2022-08-12T08:55:33.426Z,25.62
2022-08-12T08:57:23.428Z,25.57
2022-08-12T08:59:23.454Z,25.53
2022-08-12T09:01:23.404Z,26.09
2022-08-12T09:05:10.073Z,25.85
2022-08-12T09:05:25.720Z,26.04
2022-08-12T09:07:51.991Z,25.97
2022-08-12T09:09:23.803Z,26.39
2022-08-12T09:12:07.333Z,26.68
2022-08-12T09:13:28.941Z,26.57
2022-08-12T09:15:23.458Z,26.38
2022-08-12T09:17:23.455Z,26.37
2022-08-12T09:19:27.126Z,26.65
2022-08-12T09:21:23.456Z,27.06
2022-08-12T09:25:25.327Z,27.14
2022-08-12T09:27:57.789Z,26.00
2022-08-12T09:30:10.185Z,27.49
2022-08-12T09:32:06.720Z,27.77
2022-08-12T09:34:29.290Z,27.27
2022-08-12T09:35:28.262Z,27.22
2022-08-12T09:37:23.511Z,25.80
2022-08-12T09:40:04.447Z,25.65
2022-08-12T09:42:09.512Z,27.49
2022-08-12T09:43:24.798Z,25.64
2022-08-12T09:46:05.344Z,25.88
2022-08-12T09:47:29.375Z,25.83
2022-08-12T09:49:24.005Z,26.96
2022-08-12T09:51:23.551Z,27.28
2022-08-12T09:53:36.228Z,27.14
2022-08-12T09:56:07.122Z,27.52
2022-08-12T09:58:08.052Z,26.11
2022-08-12T10:00:17.091Z,25.54
2022-08-12T10:01:23.974Z,25.44
2022-08-12T10:03:31.725Z,25.55
2022-08-12T10:06:19.866Z,27.37
2022-08-12T10:07:25.181Z,27.48
2022-08-12T10:09:34.027Z,25.58
2022-08-12T10:11:23.460Z,27.47
2022-08-12T10:13:35.282Z,25.43
2022-08-12T10:16:00.600Z,25.43
2022-08-12T10:17:23.572Z,25.40
2022-08-12T10:19:23.382Z,27.50
2022-08-12T10:21:23.722Z,27.38
2022-08-12T10:23:39.247Z,25.52
2022-08-12T10:25:23.632Z,25.52
2022-08-12T10:27:23.585Z,25.39
2022-08-12T10:30:39.036Z,25.42
2022-08-12T10:31:23.518Z,25.32
2022-08-12T10:33:30.985Z,25.32
2022-08-12T10:35:23.565Z,27.36
2022-08-12T10:38:33.598Z,27.13
2022-08-12T10:40:05.689Z,27.17
2022-08-12T10:41:23.686Z,26.07
2022-08-12T10:43:23.594Z,27.48
2022-08-12T10:45:23.916Z,25.52
2022-08-12T10:47:26.464Z,27.50
2022-08-12T10:50:05.690Z,25.72
2022-08-12T10:52:03.339Z,27.53
2022-08-12T10:53:26.593Z,27.24
2022-08-12T10:55:23.532Z,25.51
2022-08-12T10:58:13.744Z,25.52
2022-08-12T11:00:01.371Z,25.53
2022-08-12T11:01:49.952Z,25.52
2022-08-12T11:04:18.558Z,25.45
2022-08-12T11:07:05.239Z,25.47
2022-08-12T11:08:34.764Z,27.39
2022-08-12T11:09:55.991Z,27.54
2022-08-12T11:12:36.016Z,25.89
2022-08-12T11:13:45.745Z,25.89
2022-08-12T11:15:32.674Z,25.78
2022-08-12T11:17:42.812Z,25.80
2022-08-12T11:19:23.709Z,25.88
2022-08-12T11:21:51.445Z,27.50
2022-08-12T11:23:25.150Z,27.50
2022-08-12T11:25:23.533Z,27.50
2022-08-12T11:27:23.564Z,25.58
2022-08-12T11:29:23.616Z,27.50
2022-08-12T11:31:23.609Z,27.45
2022-08-12T11:34:06.191Z,27.50
2022-08-12T11:35:23.679Z,27.67
2022-08-12T11:37:26.172Z,27.22
2022-08-12T11:39:23.707Z,27.59
2022-08-12T11:41:31.380Z,27.58
2022-08-12T11:43:23.594Z,25.74
2022-08-12T11:45:23.517Z,25.60
2022-08-12T11:47:23.682Z,25.52
2022-08-12T11:49:30.515Z,27.65
2022-08-12T11:51:23.619Z,27.55
2022-08-12T11:53:58.317Z,27.76
2022-08-12T11:55:23.497Z,27.50
2022-08-12T11:58:01.219Z,25.58
2022-08-12T12:02:01.350Z,25.64
2022-08-12T12:03:23.584Z,27.62
2022-08-12T12:05:28.446Z,27.56
2022-08-12T12:08:36.330Z,26.46
2022-08-12T12:09:23.643Z,27.50
2022-08-12T12:11:23.619Z,27.52
2022-08-12T12:14:07.656Z,25.97
2022-08-12T12:15:24.879Z,25.90
2022-08-12T12:17:23.644Z,25.89
2022-08-12T12:19:23.659Z,25.89
2022-08-12T12:21:48.017Z,24.93
2022-08-12T12:23:29.106Z,26.77
2022-08-12T12:26:06.570Z,24.78
2022-08-12T12:27:47.246Z,24.83
2022-08-12T12:30:17.853Z,26.29
2022-08-12T12:32:06.933Z,27.49
2022-08-12T12:33:23.668Z,25.40
2022-08-12T12:36:18.135Z,25.55
2022-08-12T12:37:59.118Z,25.42
2022-08-12T12:39:23.723Z,27.63
2022-08-12T12:41:24.128Z,25.13
2022-08-12T12:43:42.517Z,25.04
2022-08-12T12:45:25.895Z,25.65
2022-08-12T12:47:29.019Z,25.80
2022-08-12T12:49:26.142Z,25.89
2022-08-12T12:51:49.482Z,25.63
2022-08-12T12:54:05.899Z,25.84
2022-08-12T12:55:23.649Z,25.83
2022-08-12T12:57:36.331Z,25.64
2022-08-12T12:59:54.572Z,25.98
2022-08-12T13:01:25.618Z,25.80
2022-08-12T13:03:23.721Z,25.88
2022-08-12T13:05:27.901Z,24.97
2022-08-12T13:07:23.597Z,27.55
2022-08-12T13:09:23.700Z,27.62
2022-08-12T13:11:23.738Z,27.65
2022-08-12T13:14:10.229Z,27.66
2022-08-12T13:15:45.009Z,27.67
2022-08-12T13:17:23.764Z,27.77
2022-08-12T13:19:25.410Z,25.05
2022-08-12T13:21:36.451Z,25.58
2022-08-12T13:23:36.405Z,25.97
2022-08-12T13:25:23.812Z,26.07
2022-08-12T13:27:28.219Z,25.88
2022-08-12T13:29:23.786Z,25.38
2022-08-12T13:31:24.893Z,25.96
2022-08-12T13:33:23.694Z,25.46
2022-08-12T13:35:33.196Z,25.78
2022-08-12T13:37:23.778Z,25.85
2022-08-12T13:39:23.795Z,25.75
2022-08-12T13:41:23.757Z,25.63
2022-08-12T13:43:41.457Z,25.75
2022-08-12T13:45:23.640Z,25.74
2022-08-12T13:47:23.738Z,25.91
2022-08-12T13:49:53.928Z,25.80
2022-08-12T13:51:24.592Z,25.99
2022-08-12T13:53:40.023Z,26.08
2022-08-12T13:55:23.668Z,25.53
2022-08-12T13:57:23.806Z,25.80
2022-08-12T13:59:24.829Z,27.55
2022-08-12T14:01:23.663Z,27.47
2022-08-12T14:03:28.296Z,25.23
2022-08-12T14:05:31.425Z,25.13
2022-08-12T14:07:23.869Z,25.23
2022-08-12T14:09:29.478Z,26.88
2022-08-12T14:11:25.257Z,25.01
2022-08-12T14:14:05.700Z,25.95
2022-08-12T14:15:31.169Z,25.72
2022-08-12T14:17:23.869Z,25.65
2022-08-12T14:19:25.136Z,25.93
2022-08-12T14:21:23.806Z,25.79
2022-08-12T14:24:08.068Z,25.61
2022-08-12T14:25:23.837Z,25.98
2022-08-12T14:28:02.662Z,25.86
2022-08-12T14:29:38.227Z,25.83
2022-08-12T14:31:27.924Z,25.90
2022-08-12T14:33:23.935Z,25.80
2022-08-12T14:35:24.486Z,25.99
2022-08-12T14:37:57.363Z,25.96
2022-08-12T14:39:23.841Z,25.80
2022-08-12T14:41:23.796Z,25.75
2022-08-12T14:43:25.784Z,25.58
2022-08-12T14:45:23.827Z,25.56
2022-08-12T14:47:23.841Z,27.59
2022-08-12T14:50:00.667Z,27.37
2022-08-12T14:52:43.369Z,27.51
2022-08-12T14:55:10.805Z,27.49
2022-08-12T14:57:24.275Z,27.51
2022-08-12T14:59:24.161Z,27.49
2022-08-12T15:01:23.817Z,25.52
2022-08-12T15:03:23.888Z,26.77
2022-08-12T15:06:06.364Z,26.85
2022-08-12T15:07:33.383Z,26.93
2022-08-12T15:09:29.327Z,26.04
2022-08-12T15:11:23.826Z,25.58
2022-08-12T15:13:23.877Z,25.64
2022-08-12T15:15:23.917Z,25.61
2022-08-12T15:17:52.508Z,25.61
2022-08-12T15:20:31.198Z,26.00
2022-08-12T15:21:23.918Z,25.80
2022-08-12T15:23:23.893Z,25.75
2022-08-12T15:25:23.899Z,25.65
2022-08-12T15:27:31.818Z,25.63
2022-08-12T15:29:23.748Z,25.79
2022-08-12T15:31:28.370Z,25.61
2022-08-12T15:33:24.278Z,25.74
2022-08-12T15:35:23.811Z,25.95
2022-08-12T15:37:23.858Z,26.05
2022-08-12T15:39:23.795Z,25.89
2022-08-12T15:41:23.847Z,27.66
2022-08-12T15:44:14.093Z,27.50
2022-08-12T15:45:24.040Z,27.52
2022-08-12T15:47:26.680Z,27.49
2022-08-12T15:49:23.914Z,26.18
2022-08-12T15:51:23.969Z,27.62
2022-08-12T15:53:23.955Z,27.63
2022-08-12T15:55:23.841Z,27.60
2022-08-12T15:57:23.855Z,26.92
2022-08-12T15:59:32.616Z,27.50
2022-08-12T16:01:24.041Z,27.63
2022-08-12T16:03:25.754Z,27.59
2022-08-12T16:06:12.955Z,27.62
2022-08-12T16:07:29.971Z,26.02
2022-08-12T16:09:45.285Z,25.78
2022-08-12T16:11:23.930Z,25.80
2022-08-12T16:13:25.302Z,24.82
2022-08-12T16:15:24.908Z,24.71
2022-08-12T16:17:25.982Z,27.58
2022-08-12T16:20:04.830Z,25.93
2022-08-12T16:21:51.290Z,27.53
2022-08-12T16:23:36.206Z,26.82
2022-08-12T16:25:35.275Z,27.50
2022-08-12T16:27:24.004Z,27.22
2022-08-12T16:29:23.944Z,27.63
2022-08-12T16:31:24.243Z,27.66
2022-08-12T16:33:23.975Z,26.07
2022-08-12T16:35:23.865Z,25.96
2022-08-12T16:37:32.209Z,25.91
2022-08-12T16:39:24.043Z,26.02
2022-08-12T16:41:23.864Z,25.29
2022-08-12T16:43:23.972Z,27.59
2022-08-12T16:45:24.130Z,25.90
2022-08-12T16:47:27.283Z,27.37
2022-08-12T16:49:23.990Z,26.40
2022-08-12T16:51:23.955Z,27.07
2022-08-12T16:53:44.776Z,24.87
2022-08-12T16:55:23.817Z,24.58
2022-08-12T16:57:35.055Z,24.89
2022-08-12T16:59:24.081Z,24.97
2022-08-12T17:01:23.943Z,24.95
2022-08-12T17:03:28.955Z,24.80
2022-08-12T17:05:23.863Z,24.64
2022-08-12T17:07:24.122Z,24.55
2022-08-12T17:09:23.960Z,24.43
2022-08-12T17:11:23.996Z,24.44
2022-08-12T17:13:23.907Z,24.39
2022-08-12T17:15:57.410Z,24.38
2022-08-12T17:17:26.507Z,24.35
2022-08-12T17:19:23.940Z,24.30
2022-08-12T17:21:41.240Z,24.26
2022-08-12T17:23:24.022Z,24.27
2022-08-12T17:25:24.000Z,24.22
2022-08-12T17:27:24.032Z,24.25
2022-08-12T17:30:01.210Z,24.19
2022-08-12T17:32:00.407Z,24.29
2022-08-12T17:33:24.613Z,24.23
2022-08-12T17:35:29.842Z,24.20
2022-08-12T17:37:24.021Z,24.06
2022-08-12T17:39:24.155Z,24.02
2022-08-12T17:41:56.945Z,23.97
2022-08-12T17:43:55.559Z,24.01
2022-08-12T17:45:23.888Z,24.00
2022-08-12T17:47:31.106Z,23.95
2022-08-12T17:50:03.030Z,23.98
2022-08-12T17:51:24.272Z,23.84
2022-08-12T17:53:23.902Z,24.02
2022-08-12T17:55:43.575Z,24.01
2022-08-12T17:57:24.195Z,23.96
2022-08-12T17:59:48.189Z,24.02
2022-08-12T18:01:24.002Z,24.07
2022-08-12T18:04:05.113Z,24.07
2022-08-12T18:05:24.051Z,24.08
2022-08-12T18:07:23.900Z,23.98
2022-08-12T18:09:24.668Z,23.98
2022-08-12T18:12:04.643Z,24.01
2022-08-12T18:13:40.560Z,24.05
2022-08-12T18:15:26.548Z,24.05
2022-08-12T18:17:23.963Z,23.98
2022-08-12T18:19:23.974Z,23.96
2022-08-12T18:21:25.812Z,23.93
2022-08-12T18:23:25.090Z,23.94
2022-08-12T18:26:15.967Z,23.94
2022-08-12T18:27:30.138Z,23.81
2022-08-12T18:29:24.084Z,23.84
2022-08-12T18:31:24.142Z,23.70
2022-08-12T18:33:24.097Z,23.73
2022-08-12T18:35:46.375Z,23.81
2022-08-12T18:37:41.212Z,23.86
2022-08-12T18:39:24.048Z,23.82
2022-08-12T18:41:24.098Z,23.81
2022-08-12T18:43:24.089Z,23.81
2022-08-12T18:45:24.051Z,23.73
2022-08-12T18:47:24.123Z,24.02
2022-08-12T18:49:29.743Z,24.08
2022-08-12T18:51:34.293Z,24.05
2022-08-12T18:54:06.977Z,24.07
2022-08-12T18:55:24.052Z,24.08
2022-08-12T18:57:45.962Z,24.10
2022-08-12T19:00:01.815Z,24.03
2022-08-12T19:02:22.103Z,24.04
2022-08-12T19:03:39.785Z,24.02
2022-08-12T19:05:24.127Z,24.01
2022-08-12T19:07:24.236Z,24.02
2022-08-12T19:09:24.099Z,24.02
2022-08-12T19:11:24.135Z,24.05
2022-08-12T19:13:25.171Z,23.97
2022-08-12T19:15:24.155Z,24.05
2022-08-12T19:17:24.018Z,24.09
2022-08-12T19:19:24.069Z,24.10
2022-08-12T19:21:24.147Z,24.06
2022-08-12T19:23:24.157Z,24.06
2022-08-12T19:26:01.686Z,24.05
2022-08-12T19:27:24.179Z,23.63
2022-08-12T19:29:24.193Z,23.68
2022-08-12T19:31:24.060Z,23.72
2022-08-12T19:33:24.064Z,23.73
2022-08-12T19:36:07.590Z,23.73
2022-08-12T19:37:27.188Z,23.72
2022-08-12T19:39:29.600Z,23.68
2022-08-12T19:41:24.121Z,23.88
2022-08-12T19:43:24.080Z,23.86
2022-08-12T19:45:24.202Z,23.96
2022-08-12T19:47:24.119Z,23.89
2022-08-12T19:49:24.219Z,23.96
2022-08-12T19:51:24.731Z,23.88
2022-08-12T19:53:24.415Z,23.86
2022-08-12T19:55:24.265Z,23.91
2022-08-12T19:57:24.200Z,23.86
2022-08-12T19:59:24.135Z,24.00
2022-08-12T20:01:24.087Z,23.96
2022-08-12T20:03:38.381Z,23.96
2022-08-12T20:06:05.215Z,23.84
2022-08-12T20:07:24.561Z,23.93
2022-08-12T20:09:24.070Z,23.87
2022-08-12T20:12:14.316Z,23.88
2022-08-12T20:13:26.769Z,23.91
2022-08-12T20:15:26.327Z,23.89
2022-08-12T20:17:24.208Z,23.77
2022-08-12T20:19:24.179Z,23.62
2022-08-12T20:21:24.709Z,23.50
2022-08-12T20:23:24.196Z,23.49
2022-08-12T20:25:28.130Z,23.42
2022-08-12T20:27:29.313Z,23.52
2022-08-12T20:29:24.216Z,23.45
2022-08-12T20:31:24.269Z,23.53
2022-08-12T20:33:32.675Z,23.49
2022-08-12T20:35:24.774Z,23.65
2022-08-12T20:37:24.211Z,23.70
2022-08-12T20:39:52.944Z,23.67
2022-08-12T20:41:25.283Z,23.66
2022-08-12T20:43:28.278Z,23.74
2022-08-12T20:45:25.966Z,23.64
2022-08-12T20:47:24.263Z,23.70
2022-08-12T20:49:24.140Z,23.71
2022-08-12T20:51:24.261Z,23.66
2022-08-12T20:53:33.241Z,23.71
2022-08-12T20:55:41.981Z,23.70
2022-08-12T20:57:24.190Z,23.63
2022-08-12T20:59:24.115Z,23.66
2022-08-12T21:01:29.059Z,23.65
2022-08-12T21:03:24.275Z,23.65
2022-08-12T21:05:24.245Z,23.65
2022-08-12T21:07:24.262Z,23.56
2022-08-12T21:09:24.281Z,23.63
2022-08-12T21:11:24.557Z,23.58
2022-08-12T21:13:24.142Z,23.39
2022-08-12T21:15:30.563Z,23.26
2022-08-12T21:17:24.177Z,23.25
2022-08-12T21:19:24.868Z,23.24
2022-08-12T21:21:47.025Z,23.38
2022-08-12T21:23:25.599Z,23.29
2022-08-12T21:25:24.167Z,23.33
2022-08-12T21:27:59.229Z,23.27
2022-08-12T21:29:24.285Z,23.51
2022-08-12T21:32:39.208Z,23.53
2022-08-12T21:33:24.285Z,23.49
2022-08-12T21:35:24.281Z,23.52
2022-08-12T21:37:27.243Z,23.45
2022-08-12T21:39:27.842Z,23.53
2022-08-12T21:41:24.300Z,23.53
2022-08-12T21:43:24.329Z,23.49
2022-08-12T21:45:47.640Z,23.53
2022-08-12T21:47:24.309Z,23.51
2022-08-12T21:49:53.447Z,23.45
2022-08-12T21:51:24.320Z,23.45
2022-08-12T21:53:31.679Z,23.42
2022-08-12T21:55:24.435Z,23.49
2022-08-12T21:57:24.314Z,23.50
2022-08-12T21:59:24.315Z,23.42
2022-08-12T22:01:24.453Z,23.40
2022-08-12T22:03:55.043Z,23.48
2022-08-12T22:05:24.243Z,23.43
2022-08-12T22:07:24.291Z,23.25
2022-08-12T22:09:24.187Z,23.24
2022-08-12T22:11:24.341Z,23.18
2022-08-12T22:14:07.878Z,23.22
2022-08-12T22:15:24.179Z,23.16
2022-08-12T22:17:24.155Z,23.11
2022-08-12T22:19:24.170Z,23.11
2022-08-12T22:21:24.689Z,23.31
2022-08-12T22:23:28.390Z,23.41
2022-08-12T22:25:26.723Z,23.39
2022-08-12T22:27:32.520Z,23.34
2022-08-12T22:29:27.515Z,23.34
2022-08-12T22:31:24.355Z,23.38
2022-08-12T22:33:24.798Z,23.39
2022-08-12T22:35:29.139Z,23.36
2022-08-12T22:37:24.235Z,23.38
2022-08-12T22:39:26.318Z,23.38
2022-08-12T22:41:24.301Z,23.29
2022-08-12T22:43:24.603Z,23.31
2022-08-12T22:45:24.373Z,23.31
2022-08-12T22:47:45.887Z,23.30
2022-08-12T22:49:36.256Z,23.30
2022-08-12T22:51:24.369Z,23.30
2022-08-12T22:53:24.234Z,23.42
2022-08-12T22:56:00.565Z,23.34
2022-08-12T22:57:24.391Z,23.35
2022-08-12T22:59:24.389Z,23.43
2022-08-12T23:01:52.096Z,23.08
2022-08-12T23:03:48.390Z,23.02
2022-08-12T23:05:24.360Z,22.97
2022-08-12T23:07:24.595Z,23.08
2022-08-12T23:09:24.282Z,22.97
2022-08-12T23:11:25.454Z,22.98
2022-08-12T23:13:24.248Z,22.96
2022-08-12T23:15:24.432Z,23.20
2022-08-12T23:17:40.972Z,23.23
2022-08-12T23:19:24.362Z,23.25
2022-08-12T23:21:24.448Z,23.26
2022-08-12T23:23:24.257Z,23.26
2022-08-12T23:25:32.794Z,23.27
2022-08-12T23:27:24.948Z,23.25
2022-08-12T23:29:29.997Z,23.27
2022-08-12T23:32:01.822Z,23.22
2022-08-12T23:34:00.212Z,23.23
2022-08-12T23:35:24.313Z,23.22
2022-08-12T23:37:47.746Z,23.26
2022-08-12T23:40:13.977Z,23.19
2022-08-12T23:41:24.448Z,23.29
2022-08-12T23:43:24.446Z,23.16
2022-08-12T23:45:30.783Z,23.26
2022-08-12T23:47:24.363Z,23.24
2022-08-12T23:49:27.172Z,23.25
2022-08-12T23:51:24.643Z,23.26
2022-08-12T23:53:24.523Z,23.17
2022-08-12T23:55:29.084Z,22.95
2022-08-12T23:57:24.272Z,22.99
2022-08-12T23:59:24.269Z,22.98
